sensor_id;sensor_type;location;lat;lon;timestamp;P1;durP1;ratioP1;P2;durP2;ratioP2
36353;SDS011;22383;51.114;13.666;2022-08-04T00:01:42;7.55;;;4.53;;
36353;SDS011;22383;51.114;13.666;2022-08-04T00:04:02;7.05;;;4.47;;
36353;SDS011;22383;51.114;13.666;2022-08-04T00:10:00;5.68;;;4.10;;
36353;SDS011;22383;51.114;13.666;2022-08-04T00:12:13;8.13;;;4.20;;
36353;SDS011;22383;51.114;13.666;2022-08-04T00:14:47;4.97;;;4.25;;
36353;SDS011;22383;51.114;13.666;2022-08-04T00:17:19;7.45;;;4.43;;
36353;SDS011;22383;51.114;13.666;2022-08-04T00:19:52;5.18;;;4.15;;
36353;SDS011;22383;51.114;13.666;2022-08-04T00:22:28;12.73;;;4.57;;
36353;SDS011;22383;51.114;13.666;2022-08-04T00:24:59;5.03;;;4.30;;
36353;SDS011;22383;51.114;13.666;2022-08-04T00:27:29;9.55;;;4.22;;
36353;SDS011;22383;51.114;13.666;2022-08-04T00:30:02;6.65;;;4.47;;
36353;SDS011;22383;51.114;13.666;2022-08-04T00:32:31;8.32;;;4.57;;
36353;SDS011;22383;51.114;13.666;2022-08-04T00:35:00;9.75;;;4.45;;
36353;SDS011;22383;51.114;13.666;2022-08-04T00:37:28;8.65;;;4.38;;
36353;SDS011;22383;51.114;13.666;2022-08-04T00:39:59;6.05;;;4.25;;
36353;SDS011;22383;51.114;13.666;2022-08-04T00:42:43;11.63;;;4.88;;
36353;SDS011;22383;51.114;13.666;2022-08-04T00:54:05;7.15;;;4.80;;
36353;SDS011;22383;51.114;13.666;2022-08-04T00:56:56;7.60;;;4.80;;
36353;SDS011;22383;51.114;13.666;2022-08-04T01:00:09;7.20;;;4.88;;
36353;SDS011;22383;51.114;13.666;2022-08-04T01:10:40;12.40;;;5.40;;
36353;SDS011;22383;51.114;13.666;2022-08-04T01:13:35;7.47;;;5.72;;
36353;SDS011;22383;51.114;13.666;2022-08-04T01:16:05;7.63;;;5.22;;
36353;SDS011;22383;51.114;13.666;2022-08-04T01:24:04;10.40;;;5.63;;
36353;SDS011;22383;51.114;13.666;2022-08-04T01:26:56;6.43;;;5.00;;
36353;SDS011;22383;51.114;13.666;2022-08-04T01:29:37;8.50;;;5.43;;
36353;SDS011;22383;51.114;13.666;2022-08-04T01:40:26;10.20;;;4.93;;
36353;SDS011;22383;51.114;13.666;2022-08-04T01:42:54;9.60;;;5.60;;
36353;SDS011;22383;51.114;13.666;2022-08-04T01:45:24;8.95;;;4.80;;
36353;SDS011;22383;51.114;13.666;2022-08-04T01:47:54;7.57;;;5.38;;
36353;SDS011;22383;51.114;13.666;2022-08-04T01:50:22;7.38;;;5.30;;
36353;SDS011;22383;51.114;13.666;2022-08-04T01:52:54;6.53;;;5.55;;
36353;SDS011;22383;51.114;13.666;2022-08-04T01:55:22;9.55;;;5.35;;
36353;SDS011;22383;51.114;13.666;2022-08-04T01:58:12;8.48;;;5.22;;
36353;SDS011;22383;51.114;13.666;2022-08-04T02:00:46;7.25;;;5.07;;
36353;SDS011;22383;51.114;13.666;2022-08-04T02:03:22;8.40;;;5.00;;
36353;SDS011;22383;51.114;13.666;2022-08-04T02:06:15;7.55;;;4.90;;
36353;SDS011;22383;51.114;13.666;2022-08-04T02:09:02;6.85;;;5.18;;
36353;SDS011;22383;51.114;13.666;2022-08-04T02:11:39;8.88;;;5.38;;
36353;SDS011;22383;51.114;13.666;2022-08-04T02:14:13;9.00;;;5.55;;
36353;SDS011;22383;51.114;13.666;2022-08-04T02:17:08;10.73;;;5.30;;
36353;SDS011;22383;51.114;13.666;2022-08-04T02:20:22;7.88;;;5.05;;
36353;SDS011;22383;51.114;13.666;2022-08-04T02:22:46;9.02;;;5.72;;
36353;SDS011;22383;51.114;13.666;2022-08-04T02:25:26;7.10;;;4.88;;
36353;SDS011;22383;51.114;13.666;2022-08-04T02:27:58;8.85;;;4.97;;
36353;SDS011;22383;51.114;13.666;2022-08-04T02:30:30;7.00;;;4.65;;
36353;SDS011;22383;51.114;13.666;2022-08-04T02:33:04;7.68;;;4.80;;
36353;SDS011;22383;51.114;13.666;2022-08-04T02:35:37;6.38;;;5.07;;
36353;SDS011;22383;51.114;13.666;2022-08-04T02:38:11;7.25;;;4.85;;
36353;SDS011;22383;51.114;13.666;2022-08-04T02:40:52;7.90;;;5.50;;
36353;SDS011;22383;51.114;13.666;2022-08-04T02:43:26;5.93;;;4.95;;
36353;SDS011;22383;51.114;13.666;2022-08-04T02:46:16;9.60;;;5.00;;
36353;SDS011;22383;51.114;13.666;2022-08-04T02:48:46;8.52;;;5.50;;
36353;SDS011;22383;51.114;13.666;2022-08-04T02:51:15;7.50;;;5.32;;
36353;SDS011;22383;51.114;13.666;2022-08-04T02:53:45;8.05;;;5.15;;
36353;SDS011;22383;51.114;13.666;2022-08-04T02:56:18;8.80;;;5.63;;
36353;SDS011;22383;51.114;13.666;2022-08-04T02:58:56;7.03;;;4.97;;
36353;SDS011;22383;51.114;13.666;2022-08-04T03:01:25;8.32;;;5.22;;
36353;SDS011;22383;51.114;13.666;2022-08-04T03:12:38;9.07;;;5.57;;
36353;SDS011;22383;51.114;13.666;2022-08-04T03:20:38;6.72;;;4.68;;
36353;SDS011;22383;51.114;13.666;2022-08-04T03:47:19;8.25;;;4.43;;
36353;SDS011;22383;51.114;13.666;2022-08-04T03:50:06;10.13;;;5.00;;
36353;SDS011;22383;51.114;13.666;2022-08-04T04:10:13;6.68;;;4.82;;
36353;SDS011;22383;51.114;13.666;2022-08-04T04:18:43;7.60;;;4.90;;
36353;SDS011;22383;51.114;13.666;2022-08-04T04:21:43;6.50;;;4.85;;
36353;SDS011;22383;51.114;13.666;2022-08-04T04:24:55;5.57;;;4.53;;
36353;SDS011;22383;51.114;13.666;2022-08-04T04:27:39;7.28;;;5.20;;
36353;SDS011;22383;51.114;13.666;2022-08-04T04:30:24;9.35;;;4.72;;
36353;SDS011;22383;51.114;13.666;2022-08-04T04:33:23;8.40;;;4.65;;
36353;SDS011;22383;51.114;13.666;2022-08-04T04:36:09;7.30;;;4.97;;
36353;SDS011;22383;51.114;13.666;2022-08-04T04:38:44;7.60;;;4.13;;
36353;SDS011;22383;51.114;13.666;2022-08-04T04:46:49;6.40;;;4.90;;
36353;SDS011;22383;51.114;13.666;2022-08-04T04:49:36;7.40;;;4.45;;
36353;SDS011;22383;51.114;13.666;2022-08-04T04:52:21;8.57;;;4.90;;
36353;SDS011;22383;51.114;13.666;2022-08-04T04:57:44;8.00;;;4.25;;
36353;SDS011;22383;51.114;13.666;2022-08-04T05:00:25;9.00;;;4.97;;
36353;SDS011;22383;51.114;13.666;2022-08-04T05:03:20;14.75;;;4.80;;
36353;SDS011;22383;51.114;13.666;2022-08-04T05:06:12;6.25;;;4.10;;
36353;SDS011;22383;51.114;13.666;2022-08-04T05:09:02;6.63;;;4.60;;
36353;SDS011;22383;51.114;13.666;2022-08-04T05:22:30;5.93;;;4.22;;
36353;SDS011;22383;51.114;13.666;2022-08-04T05:27:49;5.50;;;4.13;;
36353;SDS011;22383;51.114;13.666;2022-08-04T05:30:20;8.43;;;4.60;;
36353;SDS011;22383;51.114;13.666;2022-08-04T05:35:35;12.68;;;6.03;;
36353;SDS011;22383;51.114;13.666;2022-08-04T05:38:28;8.18;;;5.45;;
36353;SDS011;22383;51.114;13.666;2022-08-04T05:41:00;7.95;;;4.10;;
36353;SDS011;22383;51.114;13.666;2022-08-04T05:43:29;9.80;;;4.32;;
36353;SDS011;22383;51.114;13.666;2022-08-04T05:45:57;9.75;;;3.90;;
36353;SDS011;22383;51.114;13.666;2022-08-04T05:48:25;7.72;;;4.18;;
36353;SDS011;22383;51.114;13.666;2022-08-04T05:50:53;4.50;;;3.85;;
36353;SDS011;22383;51.114;13.666;2022-08-04T05:53:27;8.35;;;4.22;;
36353;SDS011;22383;51.114;13.666;2022-08-04T05:55:55;12.02;;;4.68;;
36353;SDS011;22383;51.114;13.666;2022-08-04T05:58:27;9.13;;;4.00;;
36353;SDS011;22383;51.114;13.666;2022-08-04T06:01:00;10.98;;;3.70;;
36353;SDS011;22383;51.114;13.666;2022-08-04T06:03:28;7.07;;;4.43;;
36353;SDS011;22383;51.114;13.666;2022-08-04T06:05:57;5.72;;;4.20;;
36353;SDS011;22383;51.114;13.666;2022-08-04T06:08:27;7.05;;;3.78;;
36353;SDS011;22383;51.114;13.666;2022-08-04T06:10:56;7.82;;;3.30;;
36353;SDS011;22383;51.114;13.666;2022-08-04T06:13:28;8.57;;;3.63;;
36353;SDS011;22383;51.114;13.666;2022-08-04T06:16:15;7.20;;;3.50;;
36353;SDS011;22383;51.114;13.666;2022-08-04T06:18:58;7.78;;;3.78;;
36353;SDS011;22383;51.114;13.666;2022-08-04T06:21:50;5.97;;;3.38;;
36353;SDS011;22383;51.114;13.666;2022-08-04T06:24:21;5.63;;;3.65;;
36353;SDS011;22383;51.114;13.666;2022-08-04T06:26:51;8.60;;;3.65;;
36353;SDS011;22383;51.114;13.666;2022-08-04T06:29:20;7.93;;;3.60;;
36353;SDS011;22383;51.114;13.666;2022-08-04T06:31:52;7.07;;;3.55;;
36353;SDS011;22383;51.114;13.666;2022-08-04T06:34:44;8.93;;;4.13;;
36353;SDS011;22383;51.114;13.666;2022-08-04T06:37:12;6.93;;;3.75;;
36353;SDS011;22383;51.114;13.666;2022-08-04T06:40:00;8.65;;;3.25;;
36353;SDS011;22383;51.114;13.666;2022-08-04T06:42:50;7.82;;;3.30;;
36353;SDS011;22383;51.114;13.666;2022-08-04T06:45:18;4.70;;;3.15;;
36353;SDS011;22383;51.114;13.666;2022-08-04T06:47:47;7.45;;;3.40;;
36353;SDS011;22383;51.114;13.666;2022-08-04T06:50:15;9.40;;;3.20;;
36353;SDS011;22383;51.114;13.666;2022-08-04T06:53:03;7.15;;;3.50;;
36353;SDS011;22383;51.114;13.666;2022-08-04T06:55:32;7.15;;;3.35;;
36353;SDS011;22383;51.114;13.666;2022-08-04T06:58:00;17.83;;;3.60;;
36353;SDS011;22383;51.114;13.666;2022-08-04T07:00:29;3.25;;;2.78;;
36353;SDS011;22383;51.114;13.666;2022-08-04T07:02:58;4.93;;;3.30;;
36353;SDS011;22383;51.114;13.666;2022-08-04T07:05:26;5.38;;;3.22;;
36353;SDS011;22383;51.114;13.666;2022-08-04T07:07:54;5.82;;;3.25;;
36353;SDS011;22383;51.114;13.666;2022-08-04T07:10:27;6.82;;;3.63;;
36353;SDS011;22383;51.114;13.666;2022-08-04T07:12:56;8.35;;;3.60;;
36353;SDS011;22383;51.114;13.666;2022-08-04T07:15:26;4.45;;;3.17;;
36353;SDS011;22383;51.114;13.666;2022-08-04T07:17:54;7.65;;;3.70;;
36353;SDS011;22383;51.114;13.666;2022-08-04T07:20:31;5.03;;;3.15;;
36353;SDS011;22383;51.114;13.666;2022-08-04T07:23:03;5.72;;;3.22;;
36353;SDS011;22383;51.114;13.666;2022-08-04T07:25:34;5.30;;;3.10;;
36353;SDS011;22383;51.114;13.666;2022-08-04T07:28:25;7.57;;;3.22;;
36353;SDS011;22383;51.114;13.666;2022-08-04T07:30:55;6.05;;;3.20;;
36353;SDS011;22383;51.114;13.666;2022-08-04T07:33:24;5.47;;;3.10;;
36353;SDS011;22383;51.114;13.666;2022-08-04T07:35:53;5.72;;;3.03;;
36353;SDS011;22383;51.114;13.666;2022-08-04T07:38:37;5.97;;;3.50;;
36353;SDS011;22383;51.114;13.666;2022-08-04T07:41:19;4.20;;;3.13;;
36353;SDS011;22383;51.114;13.666;2022-08-04T07:44:04;4.47;;;2.95;;
36353;SDS011;22383;51.114;13.666;2022-08-04T07:46:33;10.85;;;3.38;;
36353;SDS011;22383;51.114;13.666;2022-08-04T07:49:02;5.97;;;3.55;;
36353;SDS011;22383;51.114;13.666;2022-08-04T07:51:30;13.75;;;3.92;;
36353;SDS011;22383;51.114;13.666;2022-08-04T07:53:58;6.20;;;3.10;;
36353;SDS011;22383;51.114;13.666;2022-08-04T07:56:26;3.85;;;3.10;;
36353;SDS011;22383;51.114;13.666;2022-08-04T07:58:54;7.18;;;3.00;;
36353;SDS011;22383;51.114;13.666;2022-08-04T08:01:22;3.30;;;2.90;;
36353;SDS011;22383;51.114;13.666;2022-08-04T08:03:51;5.55;;;3.30;;
36353;SDS011;22383;51.114;13.666;2022-08-04T08:06:20;5.05;;;3.00;;
36353;SDS011;22383;51.114;13.666;2022-08-04T08:09:00;6.85;;;3.28;;
36353;SDS011;22383;51.114;13.666;2022-08-04T08:11:41;5.13;;;3.13;;
36353;SDS011;22383;51.114;13.666;2022-08-04T08:14:29;3.58;;;2.92;;
36353;SDS011;22383;51.114;13.666;2022-08-04T08:17:00;8.32;;;3.00;;
36353;SDS011;22383;51.114;13.666;2022-08-04T08:19:32;9.15;;;2.92;;
36353;SDS011;22383;51.114;13.666;2022-08-04T08:22:03;5.00;;;3.10;;
36353;SDS011;22383;51.114;13.666;2022-08-04T08:27:01;5.22;;;2.58;;
36353;SDS011;22383;51.114;13.666;2022-08-04T08:29:34;3.67;;;2.95;;
36353;SDS011;22383;51.114;13.666;2022-08-04T08:32:03;6.78;;;2.85;;
36353;SDS011;22383;51.114;13.666;2022-08-04T08:34:38;4.93;;;2.63;;
36353;SDS011;22383;51.114;13.666;2022-08-04T08:39:55;5.05;;;3.00;;
36353;SDS011;22383;51.114;13.666;2022-08-04T08:52:28;4.50;;;2.42;;
36353;SDS011;22383;51.114;13.666;2022-08-04T09:01:15;3.58;;;2.80;;
36353;SDS011;22383;51.114;13.666;2022-08-04T09:04:08;4.68;;;2.20;;
36353;SDS011;22383;51.114;13.666;2022-08-04T09:06:58;5.88;;;2.60;;
36353;SDS011;22383;51.114;13.666;2022-08-04T09:12:27;3.85;;;2.63;;
36353;SDS011;22383;51.114;13.666;2022-08-04T09:15:08;3.22;;;2.65;;
36353;SDS011;22383;51.114;13.666;2022-08-04T09:17:46;15.50;;;2.90;;
36353;SDS011;22383;51.114;13.666;2022-08-04T09:25:47;2.38;;;2.17;;
36353;SDS011;22383;51.114;13.666;2022-08-04T09:28:24;2.65;;;2.10;;
36353;SDS011;22383;51.114;13.666;2022-08-04T09:31:14;6.68;;;2.10;;
36353;SDS011;22383;51.114;13.666;2022-08-04T09:36:35;7.78;;;2.70;;
36353;SDS011;22383;51.114;13.666;2022-08-04T09:39:11;6.93;;;2.20;;
36353;SDS011;22383;51.114;13.666;2022-08-04T09:44:34;4.05;;;1.90;;
36353;SDS011;22383;51.114;13.666;2022-08-04T09:47:38;2.50;;;2.07;;
36353;SDS011;22383;51.114;13.666;2022-08-04T09:50:42;3.10;;;1.90;;
36353;SDS011;22383;51.114;13.666;2022-08-04T09:53:21;3.05;;;2.28;;
36353;SDS011;22383;51.114;13.666;2022-08-04T09:56:22;2.95;;;1.67;;
36353;SDS011;22383;51.114;13.666;2022-08-04T10:01:45;2.17;;;1.90;;
36353;SDS011;22383;51.114;13.666;2022-08-04T10:04:26;8.48;;;2.30;;
36353;SDS011;22383;51.114;13.666;2022-08-04T10:09:43;5.03;;;2.00;;
36353;SDS011;22383;51.114;13.666;2022-08-04T10:15:01;5.13;;;2.35;;
36353;SDS011;22383;51.114;13.666;2022-08-04T10:29:12;3.60;;;2.63;;
36353;SDS011;22383;51.114;13.666;2022-08-04T10:31:45;3.00;;;2.03;;
36353;SDS011;22383;51.114;13.666;2022-08-04T10:34:21;3.27;;;2.00;;
36353;SDS011;22383;51.114;13.666;2022-08-04T10:36:58;2.65;;;2.00;;
36353;SDS011;22383;51.114;13.666;2022-08-04T10:42:52;8.90;;;2.45;;
36353;SDS011;22383;51.114;13.666;2022-08-04T10:45:35;3.08;;;1.88;;
36353;SDS011;22383;51.114;13.666;2022-08-04T10:48:35;2.45;;;2.25;;
36353;SDS011;22383;51.114;13.666;2022-08-04T10:54:26;2.97;;;2.25;;
36353;SDS011;22383;51.114;13.666;2022-08-04T10:57:00;2.25;;;2.03;;
36353;SDS011;22383;51.114;13.666;2022-08-04T10:59:44;3.72;;;2.03;;
36353;SDS011;22383;51.114;13.666;2022-08-04T11:07:40;2.50;;;2.05;;
36353;SDS011;22383;51.114;13.666;2022-08-04T11:10:09;5.22;;;2.58;;
36353;SDS011;22383;51.114;13.666;2022-08-04T11:12:39;7.03;;;2.53;;
36353;SDS011;22383;51.114;13.666;2022-08-04T11:15:12;4.70;;;2.33;;
36353;SDS011;22383;51.114;13.666;2022-08-04T11:17:49;4.78;;;2.10;;
36353;SDS011;22383;51.114;13.666;2022-08-04T11:23:09;4.95;;;2.60;;
36353;SDS011;22383;51.114;13.666;2022-08-04T11:28:48;2.35;;;1.88;;
36353;SDS011;22383;51.114;13.666;2022-08-04T11:31:39;8.25;;;2.20;;
36353;SDS011;22383;51.114;13.666;2022-08-04T11:34:24;8.43;;;2.33;;
36353;SDS011;22383;51.114;13.666;2022-08-04T11:42:21;6.97;;;2.25;;
36353;SDS011;22383;51.114;13.666;2022-08-04T11:45:00;5.15;;;2.25;;
36353;SDS011;22383;51.114;13.666;2022-08-04T11:47:38;3.90;;;2.10;;
36353;SDS011;22383;51.114;13.666;2022-08-04T11:50:16;6.47;;;2.00;;
36353;SDS011;22383;51.114;13.666;2022-08-04T11:52:52;21.63;;;3.25;;
36353;SDS011;22383;51.114;13.666;2022-08-04T11:55:24;8.55;;;3.17;;
36353;SDS011;22383;51.114;13.666;2022-08-04T11:57:53;1.95;;;1.85;;
36353;SDS011;22383;51.114;13.666;2022-08-04T12:00:21;4.93;;;1.90;;
36353;SDS011;22383;51.114;13.666;2022-08-04T12:05:47;3.20;;;2.15;;
36353;SDS011;22383;51.114;13.666;2022-08-04T12:11:24;4.70;;;2.22;;
36353;SDS011;22383;51.114;13.666;2022-08-04T12:14:03;3.15;;;2.15;;
36353;SDS011;22383;51.114;13.666;2022-08-04T12:17:02;6.22;;;2.03;;
36353;SDS011;22383;51.114;13.666;2022-08-04T12:19:33;2.97;;;1.83;;
36353;SDS011;22383;51.114;13.666;2022-08-04T12:22:25;2.67;;;1.92;;
36353;SDS011;22383;51.114;13.666;2022-08-04T12:25:00;4.55;;;2.25;;
36353;SDS011;22383;51.114;13.666;2022-08-04T12:30:08;5.88;;;2.53;;
36353;SDS011;22383;51.114;13.666;2022-08-04T12:33:04;4.40;;;2.00;;
36353;SDS011;22383;51.114;13.666;2022-08-04T12:35:50;5.60;;;2.08;;
36353;SDS011;22383;51.114;13.666;2022-08-04T12:38:38;4.10;;;1.88;;
36353;SDS011;22383;51.114;13.666;2022-08-04T12:41:18;3.65;;;2.08;;
36353;SDS011;22383;51.114;13.666;2022-08-04T12:43:49;3.92;;;2.10;;
36353;SDS011;22383;51.114;13.666;2022-08-04T12:46:23;3.53;;;2.00;;
36353;SDS011;22383;51.114;13.666;2022-08-04T12:48:52;2.13;;;1.93;;
36353;SDS011;22383;51.114;13.666;2022-08-04T12:51:27;3.10;;;2.05;;
36353;SDS011;22383;51.114;13.666;2022-08-04T12:54:26;3.33;;;1.85;;
36353;SDS011;22383;51.114;13.666;2022-08-04T12:56:58;9.15;;;2.20;;
36353;SDS011;22383;51.114;13.666;2022-08-04T12:59:27;3.75;;;1.90;;
36353;SDS011;22383;51.114;13.666;2022-08-04T13:01:55;2.55;;;2.13;;
36353;SDS011;22383;51.114;13.666;2022-08-04T13:04:37;4.97;;;2.22;;
36353;SDS011;22383;51.114;13.666;2022-08-04T13:07:23;4.00;;;2.10;;
36353;SDS011;22383;51.114;13.666;2022-08-04T13:09:53;26.10;;;3.42;;
36353;SDS011;22383;51.114;13.666;2022-08-04T13:12:23;5.35;;;1.98;;
36353;SDS011;22383;51.114;13.666;2022-08-04T13:15:04;2.80;;;2.05;;
36353;SDS011;22383;51.114;13.666;2022-08-04T13:18:01;2.15;;;1.92;;
36353;SDS011;22383;51.114;13.666;2022-08-04T13:20:31;5.40;;;2.17;;
36353;SDS011;22383;51.114;13.666;2022-08-04T13:23:07;18.38;;;3.33;;
36353;SDS011;22383;51.114;13.666;2022-08-04T13:25:42;3.67;;;2.28;;
36353;SDS011;22383;51.114;13.666;2022-08-04T13:28:31;5.28;;;2.38;;
36353;SDS011;22383;51.114;13.666;2022-08-04T13:31:10;6.55;;;2.10;;
36353;SDS011;22383;51.114;13.666;2022-08-04T13:33:43;4.05;;;2.40;;
36353;SDS011;22383;51.114;13.666;2022-08-04T13:36:14;2.90;;;2.15;;
36353;SDS011;22383;51.114;13.666;2022-08-04T13:41:22;3.17;;;1.95;;
36353;SDS011;22383;51.114;13.666;2022-08-04T13:43:58;6.47;;;2.15;;
36353;SDS011;22383;51.114;13.666;2022-08-04T13:46:49;4.03;;;1.80;;
36353;SDS011;22383;51.114;13.666;2022-08-04T13:49:21;3.47;;;2.20;;
36353;SDS011;22383;51.114;13.666;2022-08-04T13:52:08;4.65;;;2.08;;
36353;SDS011;22383;51.114;13.666;2022-08-04T13:54:38;3.58;;;2.47;;
36353;SDS011;22383;51.114;13.666;2022-08-04T13:57:10;3.40;;;2.10;;
36353;SDS011;22383;51.114;13.666;2022-08-04T13:59:42;5.60;;;2.20;;
36353;SDS011;22383;51.114;13.666;2022-08-04T14:02:25;4.63;;;2.17;;
36353;SDS011;22383;51.114;13.666;2022-08-04T14:05:13;3.08;;;1.95;;
36353;SDS011;22383;51.114;13.666;2022-08-04T14:07:46;3.53;;;2.20;;
36353;SDS011;22383;51.114;13.666;2022-08-04T14:10:20;5.07;;;2.03;;
36353;SDS011;22383;51.114;13.666;2022-08-04T14:12:49;5.82;;;2.40;;
36353;SDS011;22383;51.114;13.666;2022-08-04T14:15:31;6.03;;;2.58;;
36353;SDS011;22383;51.114;13.666;2022-08-04T14:18:24;3.83;;;2.30;;
36353;SDS011;22383;51.114;13.666;2022-08-04T14:23:37;4.70;;;2.03;;
36353;SDS011;22383;51.114;13.666;2022-08-04T14:26:14;3.38;;;2.30;;
36353;SDS011;22383;51.114;13.666;2022-08-04T14:29:12;11.63;;;2.53;;
36353;SDS011;22383;51.114;13.666;2022-08-04T14:32:01;2.30;;;2.10;;
36353;SDS011;22383;51.114;13.666;2022-08-04T14:34:41;3.95;;;2.40;;
36353;SDS011;22383;51.114;13.666;2022-08-04T14:37:13;7.13;;;2.25;;
36353;SDS011;22383;51.114;13.666;2022-08-04T14:39:47;3.65;;;2.30;;
36353;SDS011;22383;51.114;13.666;2022-08-04T14:42:43;2.50;;;2.30;;
36353;SDS011;22383;51.114;13.666;2022-08-04T14:48:00;2.70;;;2.13;;
36353;SDS011;22383;51.114;13.666;2022-08-04T14:50:32;2.55;;;2.10;;
36353;SDS011;22383;51.114;13.666;2022-08-04T14:53:03;4.43;;;2.50;;
36353;SDS011;22383;51.114;13.666;2022-08-04T14:55:37;4.35;;;2.13;;
36353;SDS011;22383;51.114;13.666;2022-08-04T14:58:06;8.15;;;2.40;;
36353;SDS011;22383;51.114;13.666;2022-08-04T15:01:03;3.50;;;2.40;;
36353;SDS011;22383;51.114;13.666;2022-08-04T15:03:38;4.90;;;2.40;;
36353;SDS011;22383;51.114;13.666;2022-08-04T15:06:22;4.72;;;2.47;;
36353;SDS011;22383;51.114;13.666;2022-08-04T15:08:53;3.40;;;2.50;;
36353;SDS011;22383;51.114;13.666;2022-08-04T15:11:21;4.20;;;2.30;;
36353;SDS011;22383;51.114;13.666;2022-08-04T15:13:51;5.22;;;2.33;;
36353;SDS011;22383;51.114;13.666;2022-08-04T15:16:19;3.45;;;2.45;;
36353;SDS011;22383;51.114;13.666;2022-08-04T15:18:50;4.10;;;2.47;;
36353;SDS011;22383;51.114;13.666;2022-08-04T15:21:20;12.45;;;2.83;;
36353;SDS011;22383;51.114;13.666;2022-08-04T15:23:49;4.00;;;2.35;;
36353;SDS011;22383;51.114;13.666;2022-08-04T15:26:18;4.82;;;2.60;;
36353;SDS011;22383;51.114;13.666;2022-08-04T15:28:52;3.72;;;2.30;;
36353;SDS011;22383;51.114;13.666;2022-08-04T15:31:23;3.10;;;2.50;;
36353;SDS011;22383;51.114;13.666;2022-08-04T15:34:12;7.30;;;2.33;;
36353;SDS011;22383;51.114;13.666;2022-08-04T15:47:42;3.00;;;2.17;;
36353;SDS011;22383;51.114;13.666;2022-08-04T15:50:19;8.85;;;2.33;;
36353;SDS011;22383;51.114;13.666;2022-08-04T15:55:41;4.60;;;2.30;;
36353;SDS011;22383;51.114;13.666;2022-08-04T15:58:11;3.85;;;2.63;;
36353;SDS011;22383;51.114;13.666;2022-08-04T16:08:58;4.15;;;2.40;;
36353;SDS011;22383;51.114;13.666;2022-08-04T16:19:25;8.02;;;2.30;;
36353;SDS011;22383;51.114;13.666;2022-08-04T16:22:01;7.68;;;2.33;;
36353;SDS011;22383;51.114;13.666;2022-08-04T16:27:06;6.25;;;2.38;;
36353;SDS011;22383;51.114;13.666;2022-08-04T16:32:10;6.75;;;2.65;;
36353;SDS011;22383;51.114;13.666;2022-08-04T16:37:22;9.80;;;2.85;;
36353;SDS011;22383;51.114;13.666;2022-08-04T16:40:22;9.40;;;2.63;;
36353;SDS011;22383;51.114;13.666;2022-08-04T16:43:06;20.35;;;3.33;;
36353;SDS011;22383;51.114;13.666;2022-08-04T16:45:40;27.23;;;4.03;;
36353;SDS011;22383;51.114;13.666;2022-08-04T16:48:09;15.27;;;2.92;;
36353;SDS011;22383;51.114;13.666;2022-08-04T16:50:44;13.95;;;2.58;;
36353;SDS011;22383;51.114;13.666;2022-08-04T16:53:20;4.80;;;2.30;;
36353;SDS011;22383;51.114;13.666;2022-08-04T16:56:12;3.58;;;2.63;;
36353;SDS011;22383;51.114;13.666;2022-08-04T16:58:40;4.38;;;2.40;;
36353;SDS011;22383;51.114;13.666;2022-08-04T17:01:20;3.72;;;2.42;;
36353;SDS011;22383;51.114;13.666;2022-08-04T17:04:00;6.25;;;2.50;;
36353;SDS011;22383;51.114;13.666;2022-08-04T17:06:34;3.85;;;2.30;;
36353;SDS011;22383;51.114;13.666;2022-08-04T17:09:03;8.40;;;2.40;;
36353;SDS011;22383;51.114;13.666;2022-08-04T17:11:39;4.90;;;2.22;;
36353;SDS011;22383;51.114;13.666;2022-08-04T17:14:08;23.80;;;3.97;;
36353;SDS011;22383;51.114;13.666;2022-08-04T17:16:37;5.85;;;2.22;;
36353;SDS011;22383;51.114;13.666;2022-08-04T17:19:09;3.83;;;2.70;;
36353;SDS011;22383;51.114;13.666;2022-08-04T17:21:53;3.97;;;2.50;;
36353;SDS011;22383;51.114;13.666;2022-08-04T17:24:29;4.55;;;2.58;;
36353;SDS011;22383;51.114;13.666;2022-08-04T17:26:57;6.30;;;2.55;;
36353;SDS011;22383;51.114;13.666;2022-08-04T17:29:26;7.65;;;2.72;;
36353;SDS011;22383;51.114;13.666;2022-08-04T17:32:14;4.33;;;2.40;;
36353;SDS011;22383;51.114;13.666;2022-08-04T17:34:48;2.65;;;2.40;;
36353;SDS011;22383;51.114;13.666;2022-08-04T17:37:17;3.72;;;2.55;;
36353;SDS011;22383;51.114;13.666;2022-08-04T17:40:07;4.25;;;2.53;;
36353;SDS011;22383;51.114;13.666;2022-08-04T17:42:44;9.57;;;2.67;;
36353;SDS011;22383;51.114;13.666;2022-08-04T17:45:17;7.53;;;2.83;;
36353;SDS011;22383;51.114;13.666;2022-08-04T17:48:13;4.53;;;2.60;;
36353;SDS011;22383;51.114;13.666;2022-08-04T17:50:50;4.70;;;2.70;;
36353;SDS011;22383;51.114;13.666;2022-08-04T17:53:18;5.25;;;2.67;;
36353;SDS011;22383;51.114;13.666;2022-08-04T17:56:34;3.63;;;2.55;;
36353;SDS011;22383;51.114;13.666;2022-08-04T17:59:18;3.55;;;2.70;;
36353;SDS011;22383;51.114;13.666;2022-08-04T18:02:08;3.10;;;2.80;;
36353;SDS011;22383;51.114;13.666;2022-08-04T18:10:30;4.22;;;2.70;;
36353;SDS011;22383;51.114;13.666;2022-08-04T18:13:23;4.82;;;2.63;;
36353;SDS011;22383;51.114;13.666;2022-08-04T18:16:04;6.88;;;2.58;;
36353;SDS011;22383;51.114;13.666;2022-08-04T18:19:05;5.60;;;2.47;;
36353;SDS011;22383;51.114;13.666;2022-08-04T18:21:34;5.80;;;2.50;;
36353;SDS011;22383;51.114;13.666;2022-08-04T18:24:21;5.30;;;2.70;;
36353;SDS011;22383;51.114;13.666;2022-08-04T18:27:02;5.90;;;2.92;;
36353;SDS011;22383;51.114;13.666;2022-08-04T18:29:33;6.57;;;2.45;;
36353;SDS011;22383;51.114;13.666;2022-08-04T18:32:06;2.88;;;2.55;;
36353;SDS011;22383;51.114;13.666;2022-08-04T18:34:38;6.47;;;2.15;;
36353;SDS011;22383;51.114;13.666;2022-08-04T18:37:21;4.97;;;2.10;;
36353;SDS011;22383;51.114;13.666;2022-08-04T18:40:08;3.25;;;2.50;;
36353;SDS011;22383;51.114;13.666;2022-08-04T18:42:59;6.35;;;2.60;;
36353;SDS011;22383;51.114;13.666;2022-08-04T18:45:26;9.45;;;2.72;;
36353;SDS011;22383;51.114;13.666;2022-08-04T18:48:01;5.50;;;2.40;;
36353;SDS011;22383;51.114;13.666;2022-08-04T18:50:49;7.63;;;2.65;;
36353;SDS011;22383;51.114;13.666;2022-08-04T18:53:36;5.30;;;2.40;;
36353;SDS011;22383;51.114;13.666;2022-08-04T18:56:10;7.22;;;2.35;;
36353;SDS011;22383;51.114;13.666;2022-08-04T18:58:55;4.18;;;2.47;;
36353;SDS011;22383;51.114;13.666;2022-08-04T19:01:25;6.55;;;2.63;;
36353;SDS011;22383;51.114;13.666;2022-08-04T19:04:13;5.72;;;2.47;;
36353;SDS011;22383;51.114;13.666;2022-08-04T19:07:01;7.25;;;2.40;;
36353;SDS011;22383;51.114;13.666;2022-08-04T19:09:50;7.38;;;2.25;;
36353;SDS011;22383;51.114;13.666;2022-08-04T19:12:24;9.45;;;3.90;;
36353;SDS011;22383;51.114;13.666;2022-08-04T19:14:54;9.32;;;4.60;;
36353;SDS011;22383;51.114;13.666;2022-08-04T19:17:25;9.82;;;5.80;;
36353;SDS011;22383;51.114;13.666;2022-08-04T19:20:14;13.93;;;5.13;;
36353;SDS011;22383;51.114;13.666;2022-08-04T19:23:03;8.05;;;6.32;;
36353;SDS011;22383;51.114;13.666;2022-08-04T19:25:50;7.50;;;5.45;;
36353;SDS011;22383;51.114;13.666;2022-08-04T19:28:31;4.88;;;3.83;;
36353;SDS011;22383;51.114;13.666;2022-08-04T19:31:04;8.75;;;3.47;;
36353;SDS011;22383;51.114;13.666;2022-08-04T19:33:33;5.57;;;3.30;;
36353;SDS011;22383;51.114;13.666;2022-08-04T19:36:22;6.10;;;2.72;;
36353;SDS011;22383;51.114;13.666;2022-08-04T19:38:58;6.22;;;2.30;;
36353;SDS011;22383;51.114;13.666;2022-08-04T19:41:28;6.97;;;2.33;;
36353;SDS011;22383;51.114;13.666;2022-08-04T19:43:57;4.47;;;2.50;;
36353;SDS011;22383;51.114;13.666;2022-08-04T19:48:54;3.72;;;2.33;;
36353;SDS011;22383;51.114;13.666;2022-08-04T19:51:29;3.55;;;2.00;;
36353;SDS011;22383;51.114;13.666;2022-08-04T19:53:59;2.58;;;2.38;;